sensor_id;sensor_type;location;lat;lon;timestamp;P1;durP1;ratioP1;P2;durP2;ratioP2
2023;SDS011;1016;48.770;9.154;2023-04-06T00:01:40;24.27;;;7.90;;
2023;SDS011;1016;48.770;9.154;2023-04-06T00:04:05;23.47;;;7.67;;
2023;SDS011;1016;48.770;9.154;2023-04-06T00:06:31;23.37;;;7.50;;
2023;SDS011;1016;48.770;9.154;2023-04-06T00:08:58;22.93;;;7.30;;
2023;SDS011;1016;48.770;9.154;2023-04-06T00:11:24;25.30;;;8.77;;
2023;SDS011;1016;48.770;9.154;2023-04-06T00:13:50;24.60;;;8.93;;
2023;SDS011;1016;48.770;9.154;2023-04-06T00:16:15;24.30;;;8.87;;
2023;SDS011;1016;48.770;9.154;2023-04-06T00:18:41;24.70;;;8.63;;
2023;SDS011;1016;48.770;9.154;2023-04-06T00:21:06;22.73;;;8.70;;
2023;SDS011;1016;48.770;9.154;2023-04-06T00:23:32;25.90;;;7.40;;
2023;SDS011;1016;48.770;9.154;2023-04-06T00:25:58;24.10;;;8.50;;
2023;SDS011;1016;48.770;9.154;2023-04-06T00:28:24;24.30;;;7.97;;
2023;SDS011;1016;48.770;9.154;2023-04-06T00:30:53;24.20;;;8.27;;
2023;SDS011;1016;48.770;9.154;2023-04-06T00:33:20;23.50;;;7.67;;
2023;SDS011;1016;48.770;9.154;2023-04-06T00:35:47;23.30;;;7.90;;
2023;SDS011;1016;48.770;9.154;2023-04-06T00:38:14;22.77;;;7.70;;
2023;SDS011;1016;48.770;9.154;2023-04-06T00:40:41;24.37;;;7.70;;
2023;SDS011;1016;48.770;9.154;2023-04-06T00:43:09;23.20;;;8.13;;
2023;SDS011;1016;48.770;9.154;2023-04-06T00:45:34;22.00;;;7.27;;
2023;SDS011;1016;48.770;9.154;2023-04-06T00:48:00;28.30;;;8.90;;
2023;SDS011;1016;48.770;9.154;2023-04-06T00:50:26;25.07;;;8.30;;
2023;SDS011;1016;48.770;9.154;2023-04-06T00:52:52;22.60;;;8.23;;
2023;SDS011;1016;48.770;9.154;2023-04-06T00:55:19;23.47;;;7.30;;
2023;SDS011;1016;48.770;9.154;2023-04-06T00:57:45;27.33;;;8.53;;
2023;SDS011;1016;48.770;9.154;2023-04-06T01:00:10;22.63;;;7.60;;
2023;SDS011;1016;48.770;9.154;2023-04-06T01:02:37;25.97;;;8.87;;
2023;SDS011;1016;48.770;9.154;2023-04-06T01:05:03;25.40;;;7.90;;
2023;SDS011;1016;48.770;9.154;2023-04-06T01:07:29;23.27;;;8.17;;
2023;SDS011;1016;48.770;9.154;2023-04-06T01:09:55;24.97;;;8.63;;
2023;SDS011;1016;48.770;9.154;2023-04-06T01:12:20;26.90;;;8.80;;
2023;SDS011;1016;48.770;9.154;2023-04-06T01:14:46;25.77;;;8.57;;
2023;SDS011;1016;48.770;9.154;2023-04-06T01:17:12;23.07;;;8.67;;
2023;SDS011;1016;48.770;9.154;2023-04-06T01:19:37;25.23;;;9.50;;
2023;SDS011;1016;48.770;9.154;2023-04-06T01:22:05;24.60;;;9.43;;
2023;SDS011;1016;48.770;9.154;2023-04-06T01:24:30;23.93;;;8.30;;
2023;SDS011;1016;48.770;9.154;2023-04-06T01:26:56;24.73;;;8.53;;
2023;SDS011;1016;48.770;9.154;2023-04-06T01:29:22;24.13;;;8.47;;
2023;SDS011;1016;48.770;9.154;2023-04-06T01:31:47;23.30;;;8.80;;
2023;SDS011;1016;48.770;9.154;2023-04-06T01:34:13;22.80;;;7.87;;
2023;SDS011;1016;48.770;9.154;2023-04-06T01:36:39;23.97;;;7.70;;
2023;SDS011;1016;48.770;9.154;2023-04-06T01:39:04;23.87;;;8.47;;
2023;SDS011;1016;48.770;9.154;2023-04-06T01:41:30;23.30;;;8.40;;
2023;SDS011;1016;48.770;9.154;2023-04-06T01:43:56;27.90;;;8.60;;
2023;SDS011;1016;48.770;9.154;2023-04-06T01:46:21;24.20;;;8.80;;
2023;SDS011;1016;48.770;9.154;2023-04-06T01:48:47;24.20;;;8.03;;
2023;SDS011;1016;48.770;9.154;2023-04-06T01:51:12;27.60;;;8.40;;
2023;SDS011;1016;48.770;9.154;2023-04-06T01:53:38;22.03;;;7.70;;
2023;SDS011;1016;48.770;9.154;2023-04-06T01:56:03;24.77;;;8.50;;
2023;SDS011;1016;48.770;9.154;2023-04-06T01:58:30;23.27;;;8.13;;
2023;SDS011;1016;48.770;9.154;2023-04-06T02:00:55;23.20;;;7.80;;
2023;SDS011;1016;48.770;9.154;2023-04-06T02:03:21;23.27;;;8.80;;
2023;SDS011;1016;48.770;9.154;2023-04-06T02:05:46;23.90;;;7.90;;
2023;SDS011;1016;48.770;9.154;2023-04-06T02:08:12;24.10;;;8.40;;
2023;SDS011;1016;48.770;9.154;2023-04-06T02:10:37;23.83;;;8.33;;
2023;SDS011;1016;48.770;9.154;2023-04-06T02:13:03;24.80;;;7.97;;
2023;SDS011;1016;48.770;9.154;2023-04-06T02:15:29;23.23;;;8.70;;
2023;SDS011;1016;48.770;9.154;2023-04-06T02:17:55;23.17;;;8.23;;
2023;SDS011;1016;48.770;9.154;2023-04-06T02:20:20;23.57;;;8.27;;
2023;SDS011;1016;48.770;9.154;2023-04-06T02:22:46;25.33;;;8.90;;
2023;SDS011;1016;48.770;9.154;2023-04-06T02:25:11;26.03;;;8.60;;
2023;SDS011;1016;48.770;9.154;2023-04-06T02:27:37;24.10;;;8.17;;
2023;SDS011;1016;48.770;9.154;2023-04-06T02:30:03;23.93;;;8.50;;
2023;SDS011;1016;48.770;9.154;2023-04-06T02:32:29;23.63;;;8.33;;
2023;SDS011;1016;48.770;9.154;2023-04-06T02:34:55;22.83;;;8.23;;
2023;SDS011;1016;48.770;9.154;2023-04-06T02:37:20;22.47;;;7.83;;
2023;SDS011;1016;48.770;9.154;2023-04-06T02:39:48;22.17;;;7.80;;
2023;SDS011;1016;48.770;9.154;2023-04-06T02:42:13;26.73;;;8.13;;
2023;SDS011;1016;48.770;9.154;2023-04-06T02:44:40;24.83;;;8.70;;
2023;SDS011;1016;48.770;9.154;2023-04-06T02:47:06;26.13;;;8.70;;
2023;SDS011;1016;48.770;9.154;2023-04-06T02:49:32;23.50;;;8.30;;
2023;SDS011;1016;48.770;9.154;2023-04-06T02:51:57;26.60;;;8.43;;
2023;SDS011;1016;48.770;9.154;2023-04-06T02:54:23;26.40;;;8.50;;
2023;SDS011;1016;48.770;9.154;2023-04-06T02:56:48;23.50;;;8.10;;
2023;SDS011;1016;48.770;9.154;2023-04-06T02:59:14;23.77;;;8.60;;
2023;SDS011;1016;48.770;9.154;2023-04-06T03:01:40;25.47;;;8.27;;
2023;SDS011;1016;48.770;9.154;2023-04-06T03:04:05;23.10;;;8.50;;
2023;SDS011;1016;48.770;9.154;2023-04-06T03:06:31;24.10;;;8.00;;
2023;SDS011;1016;48.770;9.154;2023-04-06T03:08:56;23.47;;;8.37;;
2023;SDS011;1016;48.770;9.154;2023-04-06T03:11:22;24.50;;;8.10;;
2023;SDS011;1016;48.770;9.154;2023-04-06T03:13:47;24.70;;;8.00;;
2023;SDS011;1016;48.770;9.154;2023-04-06T03:16:13;24.30;;;8.17;;
2023;SDS011;1016;48.770;9.154;2023-04-06T03:18:38;22.90;;;7.60;;
2023;SDS011;1016;48.770;9.154;2023-04-06T03:21:04;26.50;;;8.50;;
2023;SDS011;1016;48.770;9.154;2023-04-06T03:23:30;23.50;;;8.40;;
2023;SDS011;1016;48.770;9.154;2023-04-06T03:25:55;23.57;;;8.30;;
2023;SDS011;1016;48.770;9.154;2023-04-06T03:28:21;23.70;;;8.13;;
2023;SDS011;1016;48.770;9.154;2023-04-06T03:30:46;24.87;;;8.20;;
2023;SDS011;1016;48.770;9.154;2023-04-06T03:33:12;27.30;;;8.70;;
2023;SDS011;1016;48.770;9.154;2023-04-06T03:35:37;24.73;;;8.47;;
2023;SDS011;1016;48.770;9.154;2023-04-06T03:38:03;26.77;;;8.80;;
2023;SDS011;1016;48.770;9.154;2023-04-06T03:40:32;25.00;;;8.07;;
2023;SDS011;1016;48.770;9.154;2023-04-06T03:42:59;24.60;;;8.37;;
2023;SDS011;1016;48.770;9.154;2023-04-06T03:45:24;23.90;;;8.23;;
2023;SDS011;1016;48.770;9.154;2023-04-06T03:47:50;25.23;;;8.70;;
2023;SDS011;1016;48.770;9.154;2023-04-06T03:50:15;24.00;;;8.20;;
2023;SDS011;1016;48.770;9.154;2023-04-06T03:52:41;25.00;;;8.07;;
2023;SDS011;1016;48.770;9.154;2023-04-06T03:55:07;22.57;;;7.93;;
2023;SDS011;1016;48.770;9.154;2023-04-06T03:57:33;22.87;;;7.97;;
2023;SDS011;1016;48.770;9.154;2023-04-06T03:59:58;26.93;;;7.60;;
2023;SDS011;1016;48.770;9.154;2023-04-06T04:02:24;23.30;;;8.17;;
2023;SDS011;1016;48.770;9.154;2023-04-06T04:04:50;26.40;;;8.60;;
2023;SDS011;1016;48.770;9.154;2023-04-06T04:07:15;23.50;;;8.20;;
2023;SDS011;1016;48.770;9.154;2023-04-06T04:09:41;24.50;;;8.17;;
2023;SDS011;1016;48.770;9.154;2023-04-06T04:12:06;23.90;;;8.37;;
2023;SDS011;1016;48.770;9.154;2023-04-06T04:14:32;23.67;;;8.43;;
2023;SDS011;1016;48.770;9.154;2023-04-06T04:16:57;23.33;;;7.80;;
2023;SDS011;1016;48.770;9.154;2023-04-06T04:19:23;22.70;;;7.93;;
2023;SDS011;1016;48.770;9.154;2023-04-06T04:21:48;24.83;;;8.10;;
2023;SDS011;1016;48.770;9.154;2023-04-06T04:24:14;24.17;;;7.40;;
2023;SDS011;1016;48.770;9.154;2023-04-06T04:26:40;23.17;;;7.77;;
2023;SDS011;1016;48.770;9.154;2023-04-06T04:29:07;24.73;;;8.90;;
2023;SDS011;1016;48.770;9.154;2023-04-06T04:31:32;28.83;;;8.40;;
2023;SDS011;1016;48.770;9.154;2023-04-06T04:33:59;23.37;;;7.93;;
2023;SDS011;1016;48.770;9.154;2023-04-06T04:36:25;23.97;;;8.20;;
2023;SDS011;1016;48.770;9.154;2023-04-06T04:38:51;25.07;;;8.70;;
2023;SDS011;1016;48.770;9.154;2023-04-06T04:41:17;25.80;;;8.13;;
2023;SDS011;1016;48.770;9.154;2023-04-06T04:43:43;26.53;;;8.70;;
2023;SDS011;1016;48.770;9.154;2023-04-06T04:46:08;26.10;;;8.43;;
2023;SDS011;1016;48.770;9.154;2023-04-06T04:48:34;25.37;;;8.70;;
2023;SDS011;1016;48.770;9.154;2023-04-06T04:51:00;25.30;;;8.97;;
2023;SDS011;1016;48.770;9.154;2023-04-06T04:53:26;24.90;;;8.60;;
2023;SDS011;1016;48.770;9.154;2023-04-06T04:55:51;24.17;;;8.93;;
2023;SDS011;1016;48.770;9.154;2023-04-06T04:58:17;27.30;;;9.07;;
2023;SDS011;1016;48.770;9.154;2023-04-06T05:00:44;25.43;;;8.90;;
2023;SDS011;1016;48.770;9.154;2023-04-06T05:03:13;25.70;;;8.83;;
2023;SDS011;1016;48.770;9.154;2023-04-06T05:05:44;25.03;;;8.97;;
2023;SDS011;1016;48.770;9.154;2023-04-06T05:08:10;24.97;;;8.23;;
2023;SDS011;1016;48.770;9.154;2023-04-06T05:10:36;26.23;;;8.90;;
2023;SDS011;1016;48.770;9.154;2023-04-06T05:13:01;24.47;;;9.10;;
2023;SDS011;1016;48.770;9.154;2023-04-06T05:15:27;24.47;;;8.77;;
2023;SDS011;1016;48.770;9.154;2023-04-06T05:17:53;25.17;;;8.50;;
2023;SDS011;1016;48.770;9.154;2023-04-06T05:20:18;24.93;;;9.03;;
2023;SDS011;1016;48.770;9.154;2023-04-06T05:22:44;26.07;;;9.10;;
2023;SDS011;1016;48.770;9.154;2023-04-06T05:25:09;23.83;;;8.63;;
2023;SDS011;1016;48.770;9.154;2023-04-06T05:27:35;27.57;;;9.33;;
2023;SDS011;1016;48.770;9.154;2023-04-06T05:30:01;27.60;;;9.40;;
2023;SDS011;1016;48.770;9.154;2023-04-06T05:32:27;25.87;;;8.90;;
2023;SDS011;1016;48.770;9.154;2023-04-06T05:34:53;26.37;;;9.83;;
2023;SDS011;1016;48.770;9.154;2023-04-06T05:37:18;26.23;;;9.00;;
2023;SDS011;1016;48.770;9.154;2023-04-06T05:39:44;26.10;;;9.30;;
2023;SDS011;1016;48.770;9.154;2023-04-06T05:42:10;23.57;;;9.07;;
2023;SDS011;1016;48.770;9.154;2023-04-06T05:44:36;27.47;;;9.80;;
2023;SDS011;1016;48.770;9.154;2023-04-06T05:47:02;28.67;;;10.83;;
2023;SDS011;1016;48.770;9.154;2023-04-06T05:49:28;28.70;;;10.00;;
2023;SDS011;1016;48.770;9.154;2023-04-06T05:51:54;25.20;;;9.60;;
2023;SDS011;1016;48.770;9.154;2023-04-06T05:54:20;28.90;;;9.93;;
2023;SDS011;1016;48.770;9.154;2023-04-06T05:56:45;26.50;;;10.33;;
2023;SDS011;1016;48.770;9.154;2023-04-06T05:59:11;28.53;;;10.30;;
2023;SDS011;1016;48.770;9.154;2023-04-06T06:01:36;27.00;;;9.60;;
2023;SDS011;1016;48.770;9.154;2023-04-06T06:04:02;26.10;;;9.40;;
2023;SDS011;1016;48.770;9.154;2023-04-06T06:06:28;25.53;;;9.90;;
2023;SDS011;1016;48.770;9.154;2023-04-06T06:08:57;26.40;;;10.20;;
2023;SDS011;1016;48.770;9.154;2023-04-06T06:11:26;26.30;;;9.43;;
2023;SDS011;1016;48.770;9.154;2023-04-06T06:13:52;27.30;;;10.30;;
2023;SDS011;1016;48.770;9.154;2023-04-06T06:16:18;28.40;;;10.53;;
2023;SDS011;1016;48.770;9.154;2023-04-06T06:18:44;30.93;;;10.60;;
2023;SDS011;1016;48.770;9.154;2023-04-06T06:21:10;32.93;;;11.23;;
2023;SDS011;1016;48.770;9.154;2023-04-06T06:23:39;29.20;;;10.70;;
2023;SDS011;1016;48.770;9.154;2023-04-06T06:26:06;30.37;;;10.50;;
2023;SDS011;1016;48.770;9.154;2023-04-06T06:28:32;25.10;;;10.00;;
2023;SDS011;1016;48.770;9.154;2023-04-06T06:30:58;26.03;;;10.40;;
2023;SDS011;1016;48.770;9.154;2023-04-06T06:33:23;24.57;;;9.97;;
2023;SDS011;1016;48.770;9.154;2023-04-06T06:35:51;27.20;;;10.37;;
2023;SDS011;1016;48.770;9.154;2023-04-06T06:38:18;27.90;;;9.63;;
2023;SDS011;1016;48.770;9.154;2023-04-06T06:40:44;24.67;;;9.17;;
2023;SDS011;1016;48.770;9.154;2023-04-06T06:43:10;25.70;;;9.83;;
2023;SDS011;1016;48.770;9.154;2023-04-06T06:45:36;27.70;;;9.17;;
2023;SDS011;1016;48.770;9.154;2023-04-06T06:48:01;26.20;;;9.63;;
2023;SDS011;1016;48.770;9.154;2023-04-06T06:50:29;25.97;;;10.40;;
2023;SDS011;1016;48.770;9.154;2023-04-06T06:52:54;25.50;;;10.70;;
2023;SDS011;1016;48.770;9.154;2023-04-06T06:55:20;26.37;;;9.87;;
2023;SDS011;1016;48.770;9.154;2023-04-06T06:57:46;26.60;;;10.93;;
2023;SDS011;1016;48.770;9.154;2023-04-06T07:00:12;29.23;;;10.60;;
2023;SDS011;1016;48.770;9.154;2023-04-06T07:02:39;30.67;;;10.00;;
2023;SDS011;1016;48.770;9.154;2023-04-06T07:05:05;28.83;;;9.93;;
2023;SDS011;1016;48.770;9.154;2023-04-06T07:07:31;27.30;;;9.90;;
2023;SDS011;1016;48.770;9.154;2023-04-06T07:09:57;26.53;;;10.10;;
2023;SDS011;1016;48.770;9.154;2023-04-06T07:12:23;24.70;;;9.40;;
2023;SDS011;1016;48.770;9.154;2023-04-06T07:14:48;26.27;;;10.10;;
2023;SDS011;1016;48.770;9.154;2023-04-06T07:17:14;25.97;;;9.73;;
2023;SDS011;1016;48.770;9.154;2023-04-06T07:19:39;28.10;;;10.47;;
2023;SDS011;1016;48.770;9.154;2023-04-06T07:22:05;25.27;;;9.87;;
2023;SDS011;1016;48.770;9.154;2023-04-06T07:24:31;26.10;;;10.50;;
2023;SDS011;1016;48.770;9.154;2023-04-06T07:26:58;24.90;;;9.97;;
2023;SDS011;1016;48.770;9.154;2023-04-06T07:29:24;27.77;;;10.70;;
2023;SDS011;1016;48.770;9.154;2023-04-06T07:31:49;25.87;;;9.97;;
2023;SDS011;1016;48.770;9.154;2023-04-06T07:34:15;25.67;;;10.23;;
2023;SDS011;1016;48.770;9.154;2023-04-06T07:36:40;25.90;;;9.57;;
2023;SDS011;1016;48.770;9.154;2023-04-06T07:39:06;31.57;;;10.67;;
2023;SDS011;1016;48.770;9.154;2023-04-06T07:41:32;26.40;;;10.60;;
2023;SDS011;1016;48.770;9.154;2023-04-06T07:43:58;26.77;;;11.23;;
2023;SDS011;1016;48.770;9.154;2023-04-06T07:46:24;31.80;;;11.10;;
2023;SDS011;1016;48.770;9.154;2023-04-06T07:48:50;27.20;;;9.67;;
2023;SDS011;1016;48.770;9.154;2023-04-06T07:51:16;26.80;;;11.27;;
2023;SDS011;1016;48.770;9.154;2023-04-06T07:53:44;26.50;;;10.27;;
2023;SDS011;1016;48.770;9.154;2023-04-06T07:56:09;25.73;;;10.30;;
2023;SDS011;1016;48.770;9.154;2023-04-06T07:58:35;30.30;;;10.70;;
2023;SDS011;1016;48.770;9.154;2023-04-06T08:01:01;27.20;;;11.13;;
2023;SDS011;1016;48.770;9.154;2023-04-06T08:03:27;26.97;;;10.97;;
2023;SDS011;1016;48.770;9.154;2023-04-06T08:05:52;26.07;;;10.10;;
2023;SDS011;1016;48.770;9.154;2023-04-06T08:08:18;28.70;;;11.17;;
2023;SDS011;1016;48.770;9.154;2023-04-06T08:10:44;26.50;;;10.47;;
2023;SDS011;1016;48.770;9.154;2023-04-06T08:13:10;29.43;;;11.77;;
2023;SDS011;1016;48.770;9.154;2023-04-06T08:15:35;28.80;;;11.63;;
2023;SDS011;1016;48.770;9.154;2023-04-06T08:18:01;29.90;;;12.40;;
2023;SDS011;1016;48.770;9.154;2023-04-06T08:20:27;28.70;;;12.63;;
2023;SDS011;1016;48.770;9.154;2023-04-06T08:22:53;31.30;;;12.40;;
2023;SDS011;1016;48.770;9.154;2023-04-06T08:25:18;31.27;;;13.10;;
2023;SDS011;1016;48.770;9.154;2023-04-06T08:27:44;27.70;;;12.27;;
2023;SDS011;1016;48.770;9.154;2023-04-06T08:30:10;30.33;;;12.03;;
2023;SDS011;1016;48.770;9.154;2023-04-06T08:32:35;31.30;;;12.97;;
2023;SDS011;1016;48.770;9.154;2023-04-06T08:35:01;29.33;;;12.00;;
2023;SDS011;1016;48.770;9.154;2023-04-06T08:37:26;28.40;;;12.00;;
2023;SDS011;1016;48.770;9.154;2023-04-06T08:39:52;29.60;;;12.67;;
2023;SDS011;1016;48.770;9.154;2023-04-06T08:42:21;28.90;;;12.53;;
2023;SDS011;1016;48.770;9.154;2023-04-06T08:44:49;32.10;;;12.50;;
2023;SDS011;1016;48.770;9.154;2023-04-06T08:47:18;29.30;;;12.83;;
2023;SDS011;1016;48.770;9.154;2023-04-06T08:49:44;28.63;;;13.00;;
2023;SDS011;1016;48.770;9.154;2023-04-06T08:52:11;27.77;;;11.73;;
2023;SDS011;1016;48.770;9.154;2023-04-06T08:54:37;29.60;;;11.90;;
2023;SDS011;1016;48.770;9.154;2023-04-06T08:57:03;28.17;;;12.77;;
2023;SDS011;1016;48.770;9.154;2023-04-06T08:59:30;28.93;;;12.90;;
2023;SDS011;1016;48.770;9.154;2023-04-06T09:01:56;29.80;;;12.27;;
2023;SDS011;1016;48.770;9.154;2023-04-06T09:04:24;29.20;;;11.37;;
2023;SDS011;1016;48.770;9.154;2023-04-06T09:06:51;27.07;;;12.27;;
2023;SDS011;1016;48.770;9.154;2023-04-06T09:09:17;29.10;;;12.10;;
2023;SDS011;1016;48.770;9.154;2023-04-06T09:11:43;29.37;;;11.40;;
2023;SDS011;1016;48.770;9.154;2023-04-06T09:14:16;26.73;;;11.13;;
2023;SDS011;1016;48.770;9.154;2023-04-06T09:16:43;26.93;;;11.10;;
2023;SDS011;1016;48.770;9.154;2023-04-06T09:19:12;30.63;;;11.80;;
2023;SDS011;1016;48.770;9.154;2023-04-06T09:21:38;27.90;;;11.00;;
2023;SDS011;1016;48.770;9.154;2023-04-06T09:24:05;25.77;;;10.60;;
2023;SDS011;1016;48.770;9.154;2023-04-06T09:26:32;29.13;;;10.70;;
2023;SDS011;1016;48.770;9.154;2023-04-06T09:29:08;26.77;;;10.93;;
2023;SDS011;1016;48.770;9.154;2023-04-06T09:31:34;27.07;;;10.87;;
2023;SDS011;1016;48.770;9.154;2023-04-06T09:34:00;30.53;;;11.60;;
2023;SDS011;1016;48.770;9.154;2023-04-06T09:36:30;26.13;;;11.13;;
2023;SDS011;1016;48.770;9.154;2023-04-06T09:39:01;25.30;;;10.33;;
2023;SDS011;1016;48.770;9.154;2023-04-06T09:41:32;25.50;;;9.83;;
2023;SDS011;1016;48.770;9.154;2023-04-06T09:46:28;26.33;;;10.23;;
2023;SDS011;1016;48.770;9.154;2023-04-06T09:49:05;25.67;;;10.73;;
2023;SDS011;1016;48.770;9.154;2023-04-06T09:51:39;27.87;;;11.60;;
2023;SDS011;1016;48.770;9.154;2023-04-06T09:54:15;25.70;;;10.27;;
2023;SDS011;1016;48.770;9.154;2023-04-06T09:56:49;28.17;;;11.13;;
2023;SDS011;1016;48.770;9.154;2023-04-06T10:02:06;24.53;;;9.73;;
2023;SDS011;1016;48.770;9.154;2023-04-06T10:04:43;26.93;;;10.10;;
2023;SDS011;1016;48.770;9.154;2023-04-06T10:07:18;25.50;;;10.07;;
2023;SDS011;1016;48.770;9.154;2023-04-06T10:09:44;23.53;;;9.43;;
2023;SDS011;1016;48.770;9.154;2023-04-06T10:12:12;23.00;;;8.23;;
2023;SDS011;1016;48.770;9.154;2023-04-06T10:14:38;27.07;;;8.57;;
2023;SDS011;1016;48.770;9.154;2023-04-06T10:17:06;22.87;;;8.40;;
2023;SDS011;1016;48.770;9.154;2023-04-06T10:19:49;23.70;;;8.73;;
2023;SDS011;1016;48.770;9.154;2023-04-06T10:22:26;23.90;;;8.77;;
2023;SDS011;1016;48.770;9.154;2023-04-06T10:25:28;25.07;;;8.30;;
2023;SDS011;1016;48.770;9.154;2023-04-06T10:28:08;22.90;;;8.50;;
2023;SDS011;1016;48.770;9.154;2023-04-06T10:30:41;23.17;;;8.63;;
2023;SDS011;1016;48.770;9.154;2023-04-06T10:35:46;25.97;;;8.60;;
2023;SDS011;1016;48.770;9.154;2023-04-06T10:38:15;24.97;;;8.50;;
2023;SDS011;1016;48.770;9.154;2023-04-06T10:40:45;23.23;;;8.20;;
2023;SDS011;1016;48.770;9.154;2023-04-06T10:45:56;22.83;;;7.80;;
2023;SDS011;1016;48.770;9.154;2023-04-06T10:48:24;22.33;;;7.90;;
2023;SDS011;1016;48.770;9.154;2023-04-06T10:50:53;23.87;;;8.17;;
2023;SDS011;1016;48.770;9.154;2023-04-06T10:53:22;24.20;;;8.37;;
2023;SDS011;1016;48.770;9.154;2023-04-06T10:55:49;22.80;;;7.73;;
2023;SDS011;1016;48.770;9.154;2023-04-06T10:58:16;23.80;;;7.97;;
2023;SDS011;1016;48.770;9.154;2023-04-06T11:00:45;24.60;;;7.90;;
2023;SDS011;1016;48.770;9.154;2023-04-06T11:03:12;21.70;;;7.37;;
2023;SDS011;1016;48.770;9.154;2023-04-06T11:05:38;22.40;;;8.13;;
2023;SDS011;1016;48.770;9.154;2023-04-06T11:08:03;26.30;;;10.40;;
2023;SDS011;1016;48.770;9.154;2023-04-06T11:10:29;23.47;;;8.43;;
2023;SDS011;1016;48.770;9.154;2023-04-06T11:12:55;24.97;;;8.80;;
2023;SDS011;1016;48.770;9.154;2023-04-06T11:15:21;21.97;;;7.20;;
2023;SDS011;1016;48.770;9.154;2023-04-06T11:17:47;21.10;;;7.30;;
2023;SDS011;1016;48.770;9.154;2023-04-06T11:20:14;22.27;;;7.20;;
2023;SDS011;1016;48.770;9.154;2023-04-06T11:22:50;22.83;;;7.67;;
2023;SDS011;1016;48.770;9.154;2023-04-06T11:25:16;41.27;;;8.60;;
2023;SDS011;1016;48.770;9.154;2023-04-06T11:27:42;22.37;;;7.43;;
2023;SDS011;1016;48.770;9.154;2023-04-06T11:30:09;23.27;;;7.57;;
2023;SDS011;1016;48.770;9.154;2023-04-06T11:32:42;25.67;;;7.80;;
2023;SDS011;1016;48.770;9.154;2023-04-06T11:35:22;22.40;;;7.97;;
2023;SDS011;1016;48.770;9.154;2023-04-06T11:37:51;21.40;;;7.33;;
2023;SDS011;1016;48.770;9.154;2023-04-06T11:40:22;21.50;;;6.87;;
2023;SDS011;1016;48.770;9.154;2023-04-06T11:42:53;22.27;;;7.23;;
2023;SDS011;1016;48.770;9.154;2023-04-06T11:45:19;21.90;;;6.93;;
2023;SDS011;1016;48.770;9.154;2023-04-06T11:47:45;22.43;;;6.60;;
2023;SDS011;1016;48.770;9.154;2023-04-06T11:50:24;23.30;;;7.27;;
2023;SDS011;1016;48.770;9.154;2023-04-06T11:53:00;26.10;;;6.60;;
2023;SDS011;1016;48.770;9.154;2023-04-06T11:55:26;21.50;;;6.57;;
2023;SDS011;1016;48.770;9.154;2023-04-06T11:57:52;22.50;;;7.50;;
2023;SDS011;1016;48.770;9.154;2023-04-06T12:00:18;23.47;;;7.40;;
2023;SDS011;1016;48.770;9.154;2023-04-06T12:02:48;21.40;;;7.20;;
2023;SDS011;1016;48.770;9.154;2023-04-06T12:05:14;22.70;;;6.50;;
2023;SDS011;1016;48.770;9.154;2023-04-06T12:07:39;21.53;;;6.67;;
2023;SDS011;1016;48.770;9.154;2023-04-06T12:10:05;29.70;;;9.70;;
2023;SDS011;1016;48.770;9.154;2023-04-06T12:12:31;21.60;;;7.13;;
2023;SDS011;1016;48.770;9.154;2023-04-06T12:14:57;22.77;;;7.20;;
2023;SDS011;1016;48.770;9.154;2023-04-06T12:17:23;23.70;;;7.30;;
2023;SDS011;1016;48.770;9.154;2023-04-06T12:19:49;22.40;;;7.10;;
2023;SDS011;1016;48.770;9.154;2023-04-06T12:22:14;21.20;;;7.10;;
2023;SDS011;1016;48.770;9.154;2023-04-06T12:24:40;22.50;;;7.17;;
2023;SDS011;1016;48.770;9.154;2023-04-06T12:27:06;22.30;;;7.47;;
2023;SDS011;1016;48.770;9.154;2023-04-06T12:29:31;21.03;;;6.90;;
2023;SDS011;1016;48.770;9.154;2023-04-06T12:31:59;21.53;;;7.20;;
2023;SDS011;1016;48.770;9.154;2023-04-06T12:34:26;22.30;;;6.70;;
2023;SDS011;1016;48.770;9.154;2023-04-06T12:36:51;21.43;;;6.70;;
2023;SDS011;1016;48.770;9.154;2023-04-06T12:39:18;21.97;;;7.27;;
2023;SDS011;1016;48.770;9.154;2023-04-06T12:41:43;20.93;;;6.63;;
2023;SDS011;1016;48.770;9.154;2023-04-06T12:44:09;22.20;;;7.33;;
2023;SDS011;1016;48.770;9.154;2023-04-06T12:46:36;21.30;;;6.70;;
2023;SDS011;1016;48.770;9.154;2023-04-06T12:49:02;22.33;;;7.57;;
2023;SDS011;1016;48.770;9.154;2023-04-06T12:51:28;21.33;;;7.30;;
2023;SDS011;1016;48.770;9.154;2023-04-06T12:53:54;21.50;;;6.90;;
2023;SDS011;1016;48.770;9.154;2023-04-06T12:56:20;22.90;;;6.87;;
2023;SDS011;1016;48.770;9.154;2023-04-06T12:58:50;21.80;;;6.50;;
2023;SDS011;1016;48.770;9.154;2023-04-06T13:01:16;21.00;;;6.20;;
2023;SDS011;1016;48.770;9.154;2023-04-06T13:03:42;20.83;;;6.17;;
2023;SDS011;1016;48.770;9.154;2023-04-06T13:06:08;21.07;;;6.87;;
2023;SDS011;1016;48.770;9.154;2023-04-06T13:08:35;23.90;;;8.37;;
2023;SDS011;1016;48.770;9.154;2023-04-06T13:11:03;20.77;;;6.70;;
2023;SDS011;1016;48.770;9.154;2023-04-06T13:13:30;21.57;;;7.20;;
2023;SDS011;1016;48.770;9.154;2023-04-06T13:16:00;21.57;;;7.30;;
2023;SDS011;1016;48.770;9.154;2023-04-06T13:18:28;22.13;;;6.60;;
2023;SDS011;1016;48.770;9.154;2023-04-06T13:20:55;22.37;;;6.80;;
2023;SDS011;1016;48.770;9.154;2023-04-06T13:23:21;20.90;;;6.17;;
2023;SDS011;1016;48.770;9.154;2023-04-06T13:25:47;20.17;;;6.13;;
2023;SDS011;1016;48.770;9.154;2023-04-06T13:28:21;20.70;;;6.20;;
2023;SDS011;1016;48.770;9.154;2023-04-06T13:30:48;21.30;;;7.10;;
2023;SDS011;1016;48.770;9.154;2023-04-06T13:33:13;20.63;;;6.70;;
2023;SDS011;1016;48.770;9.154;2023-04-06T13:35:39;21.27;;;7.00;;
2023;SDS011;1016;48.770;9.154;2023-04-06T13:38:05;22.40;;;7.30;;
2023;SDS011;1016;48.770;9.154;2023-04-06T13:40:30;22.07;;;6.67;;
2023;SDS011;1016;48.770;9.154;2023-04-06T13:42:56;21.10;;;6.90;;
2023;SDS011;1016;48.770;9.154;2023-04-06T13:45:21;21.03;;;6.53;;
2023;SDS011;1016;48.770;9.154;2023-04-06T13:47:47;22.10;;;7.33;;
2023;SDS011;1016;48.770;9.154;2023-04-06T13:50:12;21.50;;;7.30;;
2023;SDS011;1016;48.770;9.154;2023-04-06T13:52:38;20.77;;;6.80;;
2023;SDS011;1016;48.770;9.154;2023-04-06T13:55:04;22.20;;;7.37;;
2023;SDS011;1016;48.770;9.154;2023-04-06T13:57:30;22.47;;;7.70;;
2023;SDS011;1016;48.770;9.154;2023-04-06T13:59:55;22.23;;;7.03;;
2023;SDS011;1016;48.770;9.154;2023-04-06T14:02:21;21.57;;;7.60;;
2023;SDS011;1016;48.770;9.154;2023-04-06T14:04:52;23.23;;;8.37;;
2023;SDS011;1016;48.770;9.154;2023-04-06T14:07:20;21.70;;;6.90;;
2023;SDS011;1016;48.770;9.154;2023-04-06T14:09:46;26.10;;;8.03;;
2023;SDS011;1016;48.770;9.154;2023-04-06T14:12:11;21.90;;;7.30;;
2023;SDS011;1016;48.770;9.154;2023-04-06T14:14:37;21.80;;;6.80;;
2023;SDS011;1016;48.770;9.154;2023-04-06T14:17:02;20.60;;;6.37;;
2023;SDS011;1016;48.770;9.154;2023-04-06T14:19:28;20.50;;;6.17;;
2023;SDS011;1016;48.770;9.154;2023-04-06T14:21:54;21.80;;;6.30;;
2023;SDS011;1016;48.770;9.154;2023-04-06T14:24:19;21.83;;;7.10;;
2023;SDS011;1016;48.770;9.154;2023-04-06T14:26:45;20.77;;;6.50;;
2023;SDS011;1016;48.770;9.154;2023-04-06T14:29:11;21.93;;;7.47;;
2023;SDS011;1016;48.770;9.154;2023-04-06T14:31:36;23.70;;;7.17;;
2023;SDS011;1016;48.770;9.154;2023-04-06T14:34:02;21.20;;;6.70;;
2023;SDS011;1016;48.770;9.154;2023-04-06T14:36:29;20.40;;;6.90;;
2023;SDS011;1016;48.770;9.154;2023-04-06T14:39:01;21.13;;;6.80;;
2023;SDS011;1016;48.770;9.154;2023-04-06T14:41:29;26.87;;;11.37;;
2023;SDS011;1016;48.770;9.154;2023-04-06T14:43:56;22.80;;;7.33;;
2023;SDS011;1016;48.770;9.154;2023-04-06T14:46:21;21.90;;;7.30;;
2023;SDS011;1016;48.770;9.154;2023-04-06T14:48:47;22.80;;;6.77;;
2023;SDS011;1016;48.770;9.154;2023-04-06T14:51:12;22.30;;;6.90;;
2023;SDS011;1016;48.770;9.154;2023-04-06T14:53:38;23.20;;;6.93;;
2023;SDS011;1016;48.770;9.154;2023-04-06T14:56:04;21.63;;;7.30;;
2023;SDS011;1016;48.770;9.154;2023-04-06T14:58:30;22.03;;;7.67;;
2023;SDS011;1016;48.770;9.154;2023-04-06T15:00:56;21.97;;;7.43;;
2023;SDS011;1016;48.770;9.154;2023-04-06T15:03:25;23.07;;;7.20;;
2023;SDS011;1016;48.770;9.154;2023-04-06T15:05:52;24.33;;;8.87;;